Time;durP1;ratioP1;P1;durP2;ratioP2;P2;SDS_P1;SDS_P2;PMS_P1;PMS_P2;Temp;Humidity;BMP_temperature;BMP_pressure;BME280_temperature;BME280_humidity;BME280_pressure;Samples;Min_cycle;Max_cycle;Signal;HPM_P1;HPM_P2
2021/12/25 00:01:18;;;;;;;33.63;14.43;;;0.90;99.90;;;;;;10246925;29;20122;-85
2021/12/25 00:06:20;;;;;;;32.57;14.27;;;0.90;99.90;;;;;;10246948;29;20058;-88
2021/12/25 00:11:20;;;;;;;31.17;13.07;;;0.90;99.90;;;;;;10257474;28;20596;-85
2021/12/25 00:16:21;;;;;;;35.20;15.27;;;0.90;99.90;;;;;;10242334;29;20031;-83
2021/12/25 00:21:22;;;;;;;28.77;12.53;;;0.90;99.90;;;;;;10249499;28;20095;-85
2021/12/25 00:26:36;;;;;;;37.43;15.10;;;0.90;99.90;;;;;;10234378;28;20042;-84
2021/12/25 00:31:50;;;;;;;28.47;12.13;;;0.80;99.90;;;;;;10247315;28;20511;-88
2021/12/25 00:36:51;;;;;;;32.37;15.57;;;0.80;99.90;;;;;;10245790;28;20118;-89
2021/12/25 00:41:51;;;;;;;32.90;16.00;;;0.80;99.90;;;;;;10247657;28;20070;-85
2021/12/25 00:46:52;;;;;;;25.60;13.10;;;0.80;99.90;;;;;;10240458;28;20054;-88
2021/12/25 00:51:54;;;;;;;26.37;11.07;;;0.80;99.90;;;;;;10245517;28;20043;-85
2021/12/25 00:56:55;;;;;;;25.57;11.17;;;0.80;99.90;;;;;;10243013;28;20040;-85
2021/12/25 01:01:55;;;;;;;32.87;14.93;;;0.80;99.90;;;;;;10227435;29;20035;-86
2021/12/25 01:06:56;;;;;;;24.37;11.40;;;0.80;99.90;;;;;;10241439;28;20135;-85
2021/12/25 01:11:58;;;;;;;21.50;9.97;;;0.70;99.90;;;;;;10230532;29;20136;-85
2021/12/25 01:17:27;;;;;;;27.13;11.23;;;0.70;99.90;;;;;;10248623;29;20035;-84
2021/12/25 01:48:27;;;;;;;24.23;10.13;;;0.50;99.90;;;;;;10268104;28;20062;-85
2021/12/25 01:53:28;;;;;;;24.67;10.47;;;0.40;99.90;;;;;;10246994;28;20387;-86
2021/12/25 01:58:28;;;;;;;28.10;10.97;;;0.40;99.90;;;;;;10251781;29;20031;-86
2021/12/25 02:03:30;;;;;;;26.67;9.53;;;0.40;99.90;;;;;;10251556;29;20114;-85
2021/12/25 02:08:32;;;;;;;26.07;10.80;;;0.40;99.90;;;;;;10251586;29;20030;-84
2021/12/25 02:13:33;;;;;;;29.67;11.53;;;0.50;99.90;;;;;;10250931;28;20054;-85
2021/12/25 02:19:23;;;;;;;26.70;11.33;;;0.50;99.90;;;;;;10251005;28;20129;-84
2021/12/25 02:23:59;;;;;;;28.40;11.77;;;0.50;99.90;;;;;;10235011;28;20047;-84
2021/12/25 02:29:00;;;;;;;33.87;14.23;;;0.50;99.90;;;;;;10276909;28;20489;-84
2021/12/25 02:34:01;;;;;;;23.20;9.50;;;0.50;99.90;;;;;;10250557;28;20035;-87
2021/12/25 02:39:02;;;;;;;23.10;10.67;;;0.40;99.90;;;;;;10250046;28;20042;-86
2021/12/25 02:44:02;;;;;;;12.47;6.10;;;0.40;99.90;;;;;;10248730;28;20043;-85
2021/12/25 02:49:07;;;;;;;12.37;5.27;;;0.30;99.90;;;;;;10238096;29;20062;-84
2021/12/25 02:54:08;;;;;;;10.10;5.23;;;0.30;99.90;;;;;;10210391;29;20126;-86
2021/12/25 02:59:12;;;;;;;10.80;5.53;;;0.20;99.90;;;;;;10209253;29;20106;-84
2021/12/25 03:04:13;;;;;;;12.20;5.37;;;0.00;99.90;;;;;;10243304;29;20578;-86
2021/12/25 03:09:14;;;;;;;10.27;5.30;;;-0.20;99.90;;;;;;10236397;29;20069;-84
2021/12/25 03:14:32;;;;;;;10.70;5.23;;;-0.40;99.90;;;;;;10208643;29;20035;-84
2021/12/25 03:19:34;;;;;;;8.20;5.00;;;-0.70;99.90;;;;;;10208780;29;20115;-85
2021/12/25 03:24:34;;;;;;;14.07;6.43;;;-0.90;99.90;;;;;;10209522;29;20043;-86
2021/12/25 03:29:39;;;;;;;11.17;5.50;;;-1.40;99.90;;;;;;10212053;29;20491;-86
2021/12/25 03:34:40;;;;;;;14.47;6.03;;;-1.50;99.90;;;;;;10208825;29;20118;-86
2021/12/25 03:39:41;;;;;;;11.37;5.57;;;-1.70;99.90;;;;;;10208568;29;20023;-86
2021/12/25 03:44:41;;;;;;;9.87;5.43;;;-1.80;99.90;;;;;;10207693;29;20047;-86
2021/12/25 03:53:09;;;;;;;10.77;5.10;;;-1.90;99.90;;;;;;10232943;28;20066;-85
2021/12/25 04:00:30;;;;;;;8.20;3.87;;;-1.90;99.90;;;;;;10247398;29;20039;-86
2021/12/25 04:05:33;;;;;;;6.05;3.10;;;-1.90;99.90;;;;;;10246619;29;20074;-87
2021/12/25 04:10:41;;;;;;;6.67;2.83;;;-2.10;99.90;;;;;;10246785;29;20037;-85
2021/12/25 04:15:42;;;;;;;9.43;4.33;;;-2.20;99.90;;;;;;10246939;28;20483;-85
2021/12/25 04:20:43;;;;;;;8.20;3.60;;;-2.30;99.90;;;;;;10246485;28;20106;-87
2021/12/25 04:25:44;;;;;;;6.83;3.50;;;-2.30;99.90;;;;;;10241371;29;20035;-86
2021/12/25 05:07:49;;;;;;;7.17;3.63;;;-2.50;99.90;;;;;;10251048;28;20038;-85
2021/12/25 05:12:49;;;;;;;7.27;4.17;;;-2.50;99.90;;;;;;10259492;28;20414;-85
2021/12/25 05:17:50;;;;;;;8.93;4.27;;;-2.60;99.90;;;;;;10292918;28;20571;-86
2021/12/25 05:22:51;;;;;;;8.43;4.57;;;-2.50;99.90;;;;;;10275709;28;20030;-86
2021/12/25 05:27:51;;;;;;;10.50;5.50;;;-2.50;99.90;;;;;;10277160;28;20039;-89
2021/12/25 05:32:52;;;;;;;10.37;5.47;;;-2.50;99.90;;;;;;10252451;29;20727;-85
2021/12/25 05:37:57;;;;;;;11.80;5.87;;;-2.50;99.90;;;;;;10249800;28;20022;-89
2021/12/25 05:42:58;;;;;;;14.98;6.68;;;-2.50;99.90;;;;;;10236844;29;20043;-88
2021/12/25 05:47:59;;;;;;;12.20;5.60;;;-2.60;99.90;;;;;;10201153;29;20070;-90
2021/12/25 05:52:59;;;;;;;15.97;6.17;;;-2.60;99.90;;;;;;10251575;29;20403;-86
2021/12/25 05:58:03;;;;;;;7.20;4.10;;;-2.70;99.90;;;;;;10234694;29;20550;-86
2021/12/25 06:03:04;;;;;;;7.73;3.90;;;-2.80;99.90;;;;;;10233826;29;20035;-86
2021/12/25 06:08:05;;;;;;;5.93;2.73;;;-3.00;99.90;;;;;;10251144;28;20479;-88
2021/12/25 06:13:09;;;;;;;5.10;3.37;;;-3.20;99.90;;;;;;10250796;29;20039;-87
2021/12/25 06:18:11;;;;;;;6.30;3.30;;;-3.20;99.90;;;;;;10233239;28;20035;-87
2021/12/25 06:23:12;;;;;;;7.37;3.47;;;-3.30;99.90;;;;;;10250810;29;20042;-87
2021/12/25 06:28:12;;;;;;;7.97;3.63;;;-3.40;99.90;;;;;;10232809;29;20039;-85
2021/12/25 06:33:13;;;;;;;7.97;3.17;;;-3.50;99.90;;;;;;10249993;29;20042;-85
2021/12/25 06:38:14;;;;;;;6.63;3.23;;;-3.60;99.90;;;;;;10232315;29;20027;-85
2021/12/25 06:43:15;;;;;;;7.90;3.40;;;-3.70;99.90;;;;;;10250268;28;20119;-84
2021/12/25 06:48:17;;;;;;;7.17;3.77;;;-3.80;99.90;;;;;;10242278;29;20067;-88
2021/12/25 06:53:17;;;;;;;10.70;4.70;;;-3.80;99.90;;;;;;10248865;28;20077;-84
2021/12/25 06:58:18;;;;;;;12.07;5.17;;;-3.80;99.90;;;;;;10283633;28;20041;-85
2021/12/25 07:03:19;;;;;;;14.47;5.37;;;-3.90;99.90;;;;;;10264374;28;20066;-85
2021/12/25 07:08:19;;;;;;;13.90;5.40;;;-3.90;99.90;;;;;;10248729;28;20149;-84
2021/12/25 07:13:20;;;;;;;12.67;6.30;;;-3.80;99.90;;;;;;10250667;28;20153;-84
2021/12/25 07:18:21;;;;;;;14.73;5.73;;;-3.80;99.90;;;;;;10253392;28;20028;-84
2021/12/25 07:24:09;;;;;;;15.97;7.83;;;-3.70;99.90;;;;;;10231892;29;20027;-90
2021/12/25 07:29:10;;;;;;;21.70;7.57;;;-3.60;99.90;;;;;;10070114;29;20085;-85
2021/12/25 07:34:11;;;;;;;15.67;6.03;;;-3.60;99.90;;;;;;10206938;28;20468;-89
2021/12/25 07:39:12;;;;;;;18.10;6.77;;;-3.70;99.90;;;;;;10246990;28;20031;-90
2021/12/25 07:44:13;;;;;;;18.13;6.43;;;-3.60;99.90;;;;;;10229927;28;20031;-83
2021/12/25 07:49:19;;;;;;;12.20;5.67;;;-3.60;99.90;;;;;;10247188;28;20407;-88
2021/12/25 07:54:21;;;;;;;15.57;6.73;;;-3.60;99.90;;;;;;10231220;29;20054;-88
2021/12/25 07:59:22;;;;;;;16.40;7.23;;;-3.60;99.90;;;;;;10230640;29;20069;-86
2021/12/25 08:04:22;;;;;;;14.50;6.83;;;-3.40;99.90;;;;;;10225277;28;20476;-85
2021/12/25 08:09:29;;;;;;;15.00;6.20;;;-3.50;99.90;;;;;;10248324;29;20257;-85
2021/12/25 08:14:30;;;;;;;13.90;6.03;;;-3.40;99.90;;;;;;10229650;28;20037;-85
2021/12/25 08:19:32;;;;;;;14.00;5.90;;;-3.30;99.90;;;;;;10246231;28;20038;-88
2021/12/25 08:24:33;;;;;;;9.73;5.00;;;-3.40;99.90;;;;;;10245232;28;20082;-86
2021/12/25 08:29:36;;;;;;;13.87;5.93;;;-3.50;99.90;;;;;;10246330;28;20090;-86
2021/12/25 08:34:38;;;;;;;15.10;6.43;;;-3.50;99.90;;;;;;10244655;28;20153;-83
2021/12/25 08:39:39;;;;;;;16.97;6.50;;;-3.50;99.90;;;;;;10247243;28;20038;-90
2021/12/25 08:44:52;;;;;;;17.50;5.43;;;-3.60;99.90;;;;;;10251232;28;20070;-85
2021/12/25 08:49:54;;;;;;;13.10;6.10;;;-3.60;99.90;;;;;;10247350;28;20067;-89
2021/12/25 08:54:54;;;;;;;18.83;6.67;;;-3.60;99.90;;;;;;10248574;28;20098;-87
2021/12/25 08:59:57;;;;;;;15.30;6.93;;;-3.60;99.90;;;;;;10248769;28;20027;-83
2021/12/25 09:04:58;;;;;;;20.83;8.07;;;-3.40;99.90;;;;;;10249403;28;20019;-90
2021/12/25 09:09:59;;;;;;;18.37;7.37;;;-3.30;99.90;;;;;;10241242;28;20043;-82
2021/12/25 09:14:59;;;;;;;20.33;7.53;;;-3.30;99.90;;;;;;10222525;28;20382;-85
2021/12/25 09:20:07;;;;;;;21.43;9.13;;;-3.10;99.90;;;;;;10236618;28;20034;-86
2021/12/25 09:25:08;;;;;;;35.00;9.23;;;-3.30;99.90;;;;;;10242381;28;20094;-88
2021/12/25 09:30:11;;;;;;;91.00;35.37;;;-3.30;99.90;;;;;;10234083;28;21875;-86
2021/12/25 09:35:12;;;;;;;385.87;161.53;;;-3.40;99.90;;;;;;10231602;28;20026;-86
2021/12/25 09:40:13;;;;;;;628.80;306.27;;;-3.50;99.90;;;;;;10251454;28;20388;-84
2021/12/25 09:45:14;;;;;;;343.47;144.43;;;-3.60;99.90;;;;;;10251677;29;20467;-87
2021/12/25 09:50:18;;;;;;;140.93;53.30;;;-3.60;99.90;;;;;;10238507;28;20756;-85
2021/12/25 09:55:19;;;;;;;331.37;122.33;;;-3.60;99.90;;;;;;10241512;29;20030;-87
2021/12/25 10:00:23;;;;;;;18.93;6.97;;;-3.70;99.90;;;;;;10220817;29;20361;-89
2021/12/25 10:05:34;;;;;;;65.17;22.30;;;-3.60;99.90;;;;;;10228341;29;20027;-86
2021/12/25 10:10:41;;;;;;;61.20;20.47;;;-3.80;99.90;;;;;;10231565;28;20051;-84
2021/12/25 10:15:42;;;;;;;58.53;21.30;;;-3.60;99.90;;;;;;10237734;28;20027;-85
2021/12/25 10:20:46;;;;;;;22.90;6.30;;;-3.40;99.90;;;;;;10235867;28;20062;-85
2021/12/25 10:25:48;;;;;;;39.43;12.37;;;-3.40;99.90;;;;;;10235489;28;20035;-80
2021/12/25 10:30:54;;;;;;;68.10;23.47;;;-3.30;99.90;;;;;;10249652;28;20023;-84
2021/12/25 10:35:57;;;;;;;15.73;5.10;;;-3.20;99.90;;;;;;10246335;28;20115;-84
2021/12/25 10:41:28;;;;;;;19.37;5.77;;;-3.10;99.90;;;;;;10246695;29;20039;-86
2021/12/25 10:46:28;;;;;;;19.53;6.47;;;-2.90;99.90;;;;;;10226024;28;20570;-88
2021/12/25 10:51:30;;;;;;;17.70;4.93;;;-3.00;99.90;;;;;;10267297;28;20097;-84
2021/12/25 10:56:36;;;;;;;15.20;5.63;;;-3.00;99.90;;;;;;10284440;28;20034;-89
2021/12/25 11:01:40;;;;;;;24.87;7.57;;;-2.90;99.90;;;;;;10286727;28;20035;-85
2021/12/25 11:06:42;;;;;;;19.27;6.43;;;-3.00;99.90;;;;;;10286925;28;20027;-86
2021/12/25 11:11:42;;;;;;;23.80;9.00;;;-3.00;99.90;;;;;;10287227;28;20426;-87
2021/12/25 11:16:50;;;;;;;21.80;8.97;;;-3.00;99.90;;;;;;10289679;28;20042;-86
2021/12/25 11:21:59;;;;;;;14.37;6.37;;;-2.90;99.90;;;;;;10270593;28;20027;-85
2021/12/25 11:27:04;;;;;;;14.23;5.67;;;-3.10;99.90;;;;;;10288252;28;20386;-84
2021/12/25 11:32:08;;;;;;;14.80;5.10;;;-3.20;99.90;;;;;;10287756;28;20201;-83
2021/12/25 11:37:09;;;;;;;13.87;5.20;;;-3.30;99.90;;;;;;10270728;28;20154;-86
2021/12/25 11:42:11;;;;;;;12.97;5.30;;;-3.30;99.90;;;;;;10287752;28;20519;-85
2021/12/25 11:47:41;;;;;;;16.43;6.20;;;-3.30;99.90;;;;;;10287681;28;20093;-84
2021/12/25 11:53:04;;;;;;;18.17;6.17;;;-3.10;99.90;;;;;;10270294;28;20042;-84
2021/12/25 11:58:25;;;;;;;15.57;6.53;;;-3.00;99.90;;;;;;10287145;28;20025;-83
2021/12/25 12:03:54;;;;;;;17.20;7.00;;;-3.20;99.90;;;;;;10287556;28;20118;-86
2021/12/25 12:08:55;;;;;;;17.70;6.17;;;-3.20;99.90;;;;;;10270129;28;20050;-84
2021/12/25 12:14:11;;;;;;;23.43;7.67;;;-3.40;99.90;;;;;;10288892;28;20035;-84
2021/12/25 12:19:30;;;;;;;18.02;6.30;;;-3.40;99.90;;;;;;10300627;28;20023;-84
2021/12/25 12:29:47;;;;;;;17.53;6.53;;;-3.60;99.90;;;;;;10299835;28;20038;-84
2021/12/25 12:34:51;;;;;;;16.50;6.60;;;-3.50;99.90;;;;;;10300366;28;20043;-84
2021/12/25 12:40:00;;;;;;;23.63;7.30;;;-3.50;99.90;;;;;;10300423;28;20031;-84
2021/12/25 12:45:15;;;;;;;19.27;7.40;;;-3.40;99.90;;;;;;10300361;28;20027;-84
2021/12/25 12:50:16;;;;;;;23.47;8.37;;;-3.30;99.90;;;;;;10281742;28;20059;-89
2021/12/25 12:55:28;;;;;;;24.57;8.87;;;-3.30;99.90;;;;;;10266587;28;20023;-84
2021/12/25 13:00:28;;;;;;;28.83;8.87;;;-3.20;99.90;;;;;;10282141;28;20027;-83
2021/12/25 13:05:36;;;;;;;24.57;8.90;;;-3.30;99.90;;;;;;10271074;28;20464;-84
2021/12/25 13:15:40;;;;;;;27.23;8.70;;;-3.40;99.90;;;;;;10298873;28;20121;-84
2021/12/25 13:20:48;;;;;;;547.13;219.43;;;-3.60;99.90;;;;;;10299329;28;20059;-84
2021/12/25 13:26:01;;;;;;;36.10;11.23;;;-3.60;99.90;;;;;;10297113;28;20034;-84
2021/12/25 13:31:15;;;;;;;147.00;67.00;;;-3.60;99.90;;;;;;10276230;28;20063;-84
2021/12/25 13:36:23;;;;;;;430.00;196.27;;;-3.60;99.90;;;;;;10252509;28;20192;-87
2021/12/25 13:41:37;;;;;;;335.13;130.77;;;-3.60;99.90;;;;;;10234846;29;20572;-84
2021/12/25 13:46:53;;;;;;;1015.97;463.10;;;-3.70;99.90;;;;;;10252272;28;20466;-84
2021/12/25 13:51:54;;;;;;;329.17;125.70;;;-3.60;99.90;;;;;;10252097;29;20627;-85
2021/12/25 13:56:56;;;;;;;437.10;171.33;;;-3.60;99.90;;;;;;10251321;29;20031;-86
2021/12/25 14:02:10;;;;;;;532.27;210.33;;;-3.60;99.90;;;;;;10251836;29;20073;-84
2021/12/25 14:07:13;;;;;;;73.77;27.50;;;-3.60;99.90;;;;;;10251720;29;20035;-85
2021/12/25 14:12:14;;;;;;;32.90;11.93;;;-3.60;99.90;;;;;;10251149;29;20046;-88
2021/12/25 14:17:15;;;;;;;33.23;11.60;;;-3.70;99.90;;;;;;10250776;29;20486;-85
2021/12/25 14:22:19;;;;;;;29.27;9.87;;;-3.80;99.90;;;;;;10250252;28;20034;-84
2021/12/25 14:27:22;;;;;;;45.20;15.63;;;-3.80;99.90;;;;;;10250739;29;20038;-88
2021/12/25 14:32:25;;;;;;;31.97;12.13;;;-3.90;99.90;;;;;;10233263;29;20062;-86
2021/12/25 14:37:36;;;;;;;41.63;14.70;;;-3.90;99.90;;;;;;10249653;28;20023;-88
2021/12/25 14:42:44;;;;;;;33.97;12.23;;;-4.00;99.90;;;;;;10233533;29;20035;-87
2021/12/25 14:47:57;;;;;;;39.43;15.37;;;-4.00;99.90;;;;;;10261639;28;20047;-87
2021/12/25 14:53:03;;;;;;;47.10;17.10;;;-4.00;99.90;;;;;;10289434;28;20081;-88
2021/12/25 14:58:16;;;;;;;78.87;28.93;;;-4.00;99.90;;;;;;10272095;28;20034;-89
2021/12/25 15:03:23;;;;;;;55.13;19.90;;;-4.00;99.90;;;;;;10289222;28;20089;-87
2021/12/25 15:08:35;;;;;;;68.80;25.13;;;-4.10;99.90;;;;;;10288787;28;20027;-86
2021/12/25 15:13:37;;;;;;;96.00;29.37;;;-4.20;99.90;;;;;;10271332;28;20078;-84
2021/12/25 15:18:41;;;;;;;87.00;32.30;;;-4.20;99.90;;;;;;10287885;28;20023;-86
2021/12/25 15:23:42;;;;;;;103.07;33.83;;;-4.20;99.90;;;;;;10288270;28;20030;-86
2021/12/25 15:28:59;;;;;;;74.00;27.80;;;-4.10;99.90;;;;;;10288177;28;20106;-84
2021/12/25 15:34:07;;;;;;;68.53;27.70;;;-4.20;99.90;;;;;;10270138;28;20105;-83
2021/12/25 15:39:18;;;;;;;54.60;20.30;;;-4.20;99.90;;;;;;10287925;28;20041;-85
2021/12/25 15:44:23;;;;;;;39.40;15.40;;;-4.20;99.90;;;;;;10287787;28;20031;-84
2021/12/25 15:49:23;;;;;;;43.10;17.17;;;-4.30;99.90;;;;;;10286708;28;20055;-85
2021/12/25 15:54:27;;;;;;;41.17;16.17;;;-4.20;99.90;;;;;;10286002;28;20101;-86
2021/12/25 15:59:30;;;;;;;52.93;19.90;;;-4.30;99.90;;;;;;10287343;28;20030;-84
2021/12/25 16:04:31;;;;;;;50.93;19.00;;;-4.40;99.90;;;;;;10286324;28;20018;-88
2021/12/25 16:09:32;;;;;;;57.07;21.20;;;-4.60;99.90;;;;;;10287393;28;20026;-88
2021/12/25 16:14:33;;;;;;;89.93;29.87;;;-4.80;99.90;;;;;;10287276;28;20730;-84
2021/12/25 16:19:35;;;;;;;81.40;29.63;;;-5.00;99.90;;;;;;10286531;28;20031;-82
2021/12/25 16:24:36;;;;;;;87.07;30.43;;;-5.10;99.90;;;;;;10269084;28;20038;-88
2021/12/25 16:29:37;;;;;;;97.50;34.50;;;-5.30;99.90;;;;;;10287355;28;20498;-86
2021/12/25 16:34:39;;;;;;;97.63;32.73;;;-5.40;99.90;;;;;;10286376;28;20039;-84
2021/12/25 16:39:41;;;;;;;103.00;35.77;;;-5.40;99.90;;;;;;10286421;28;20360;-85
2021/12/25 16:44:42;;;;;;;121.80;39.13;;;-5.50;99.90;;;;;;10286464;28;20034;-84
2021/12/25 16:49:43;;;;;;;124.43;42.60;;;-5.40;99.90;;;;;;10243885;29;20055;-84
2021/12/25 16:54:44;;;;;;;120.57;42.00;;;-5.40;99.90;;;;;;10244485;28;20038;-84
2021/12/25 16:59:44;;;;;;;106.00;42.33;;;-5.40;99.90;;;;;;10246554;28;20023;-84
2021/12/25 17:04:45;;;;;;;123.90;44.77;;;-5.40;99.90;;;;;;10252976;29;20456;-84
2021/12/25 17:09:47;;;;;;;125.87;45.30;;;-5.50;99.90;;;;;;10253885;29;20089;-86
2021/12/25 17:14:48;;;;;;;122.50;46.80;;;-5.50;99.90;;;;;;10252298;28;20243;-79
2021/12/25 17:19:49;;;;;;;131.90;45.37;;;-5.60;99.90;;;;;;10237935;28;20175;-86
2021/12/25 17:24:53;;;;;;;131.10;46.43;;;-5.60;99.90;;;;;;10232737;28;20040;-82
2021/12/25 17:29:55;;;;;;;137.70;45.17;;;-5.60;99.90;;;;;;10234884;28;20028;-84
2021/12/25 17:34:57;;;;;;;129.73;49.57;;;-5.80;99.90;;;;;;10236126;28;20032;-83
2021/12/25 17:39:59;;;;;;;127.27;44.67;;;-5.90;99.90;;;;;;10246730;28;20035;-84
2021/12/25 17:45:00;;;;;;;135.90;47.07;;;-5.90;99.90;;;;;;10233473;29;20058;-84
2021/12/25 17:50:01;;;;;;;134.90;44.73;;;-6.20;99.90;;;;;;10249067;28;20058;-87
2021/12/25 17:55:03;;;;;;;129.80;46.13;;;-6.30;99.90;;;;;;10249079;29;20035;-84
2021/12/25 18:00:09;;;;;;;138.00;52.03;;;-6.40;99.90;;;;;;10253532;28;20125;-86
2021/12/25 18:05:12;;;;;;;137.30;51.40;;;-6.50;99.90;;;;;;10250552;28;20114;-84
2021/12/25 18:10:16;;;;;;;131.87;47.60;;;-6.60;99.90;;;;;;10247508;28;20033;-82
2021/12/25 18:15:20;;;;;;;142.63;52.30;;;-6.60;99.90;;;;;;10251435;28;20487;-85
2021/12/25 18:20:28;;;;;;;127.67;42.47;;;-6.70;99.90;;;;;;10251023;28;20027;-82
2021/12/25 18:25:29;;;;;;;134.43;48.73;;;-6.90;99.90;;;;;;10231811;29;20038;-87
2021/12/25 18:30:29;;;;;;;216.23;76.90;;;-7.00;99.90;;;;;;10250184;28;20402;-84
2021/12/25 18:35:32;;;;;;;209.33;71.70;;;-7.10;99.90;;;;;;10252509;28;20043;-88
2021/12/25 18:40:34;;;;;;;224.37;84.43;;;-7.10;99.90;;;;;;10262629;28;20733;-86
2021/12/25 18:45:36;;;;;;;223.93;79.20;;;-7.30;99.90;;;;;;10256531;28;20859;-83
2021/12/25 18:50:38;;;;;;;206.50;77.10;;;-7.40;99.90;;;;;;10274662;28;20058;-88
2021/12/25 18:55:40;;;;;;;187.73;70.93;;;-7.40;99.90;;;;;;10249142;28;20023;-87
2021/12/25 19:00:46;;;;;;;188.00;69.07;;;-7.40;99.90;;;;;;10247803;28;20029;-84
2021/12/25 19:05:48;;;;;;;;;;;-7.30;99.90;;;;;;10252629;28;20152;-85
2021/12/25 19:10:50;;;;;;;191.83;73.70;;;-7.10;99.90;;;;;;10216677;29;19919;-84
2021/12/25 19:15:57;;;;;;;187.93;71.33;;;-7.10;99.90;;;;;;10248765;28;20610;-83
2021/12/25 19:20:59;;;;;;;190.83;71.30;;;-7.20;99.90;;;;;;10253081;28;20027;-86
2021/12/25 19:26:02;;;;;;;181.33;72.37;;;-7.30;99.90;;;;;;10249918;28;20042;-83
2021/12/25 19:31:05;;;;;;;186.63;74.77;;;-7.40;99.90;;;;;;10262762;28;20043;-83
2021/12/25 19:36:06;;;;;;;193.80;74.53;;;-7.30;99.90;;;;;;10268554;28;20046;-83
2021/12/25 19:41:07;;;;;;;181.50;70.50;;;-7.30;99.90;;;;;;10261970;28;20024;-86
2021/12/25 19:46:08;;;;;;;204.93;74.37;;;-7.20;99.90;;;;;;10245440;29;21668;-85
2021/12/25 19:51:09;;;;;;;202.47;75.13;;;-7.20;99.90;;;;;;10217741;29;20527;-85
2021/12/25 19:56:10;;;;;;;198.87;76.17;;;-7.30;99.90;;;;;;10204729;29;20199;-84
2021/12/25 20:01:16;;;;;;;197.07;75.67;;;-7.50;99.90;;;;;;10188879;29;20043;-85
2021/12/25 20:06:17;;;;;;;;;;;-7.60;99.90;;;;;;10189826;29;20467;-86
2021/12/25 20:11:19;;;;;;;158.77;55.00;;;-7.90;99.90;;;;;;10189287;29;19919;-87
2021/12/25 20:16:22;;;;;;;194.37;73.60;;;-8.10;99.90;;;;;;10208112;29;20027;-87
2021/12/25 20:21:24;;;;;;;149.40;54.10;;;-8.20;99.90;;;;;;10183090;29;20111;-85
2021/12/25 20:26:28;;;;;;;187.93;63.77;;;-8.10;99.90;;;;;;10176945;29;20028;-84
2021/12/25 20:31:28;;;;;;;205.90;72.23;;;-8.10;99.90;;;;;;10178191;29;20043;-87
2021/12/25 20:36:29;;;;;;;174.67;62.53;;;-8.00;99.90;;;;;;10182047;28;20028;-84
2021/12/25 20:41:30;;;;;;;205.00;79.90;;;-8.00;99.90;;;;;;10219407;29;20031;-87
2021/12/25 20:46:31;;;;;;;208.30;81.37;;;-8.10;99.90;;;;;;10205526;29;20480;-85
2021/12/25 20:51:32;;;;;;;225.20;86.27;;;-7.80;99.90;;;;;;10243851;28;20046;-85
2021/12/25 20:57:08;;;;;;;207.67;82.37;;;-7.70;99.90;;;;;;10249502;28;20071;-84
2021/12/25 21:02:46;;;;;;;;;;;-7.70;99.90;;;;;;10236326;28;20066;-84
2021/12/25 21:07:48;;;;;;;206.73;78.20;;;-7.70;99.90;;;;;;10237050;29;19914;-83
2021/12/25 21:12:49;;;;;;;236.07;86.80;;;-7.70;99.90;;;;;;10235351;29;20067;-85
2021/12/25 21:17:51;;;;;;;236.20;91.47;;;-7.80;99.90;;;;;;10256114;28;20074;-85
2021/12/25 21:22:54;;;;;;;248.53;93.60;;;-7.80;99.90;;;;;;10240129;28;20074;-87
2021/12/25 21:27:56;;;;;;;237.43;86.73;;;-7.80;99.90;;;;;;10234203;29;20031;-85
2021/12/25 21:33:02;;;;;;;194.83;68.50;;;-7.90;99.90;;;;;;10234387;28;20039;-89
2021/12/25 21:38:06;;;;;;;186.85;65.80;;;-8.00;99.90;;;;;;10251981;28;20172;-86
2021/12/25 21:48:30;;;;;;;165.40;58.53;;;-8.00;99.90;;;;;;10251852;28;20130;-87
2021/12/25 21:54:24;;;;;;;135.27;47.33;;;-8.10;99.90;;;;;;10234067;29;20039;-91
2021/12/25 21:59:25;;;;;;;150.57;54.80;;;-8.20;99.90;;;;;;10250814;29;20483;-86
2021/12/25 22:04:33;;;;;;;171.90;60.63;;;-8.00;99.90;;;;;;10249850;28;20030;-84
2021/12/25 22:09:36;;;;;;;162.10;55.17;;;-7.90;99.90;;;;;;10250940;29;20114;-84
2021/12/25 22:20:45;;;;;;;207.43;78.23;;;-7.90;99.90;;;;;;10205842;28;20118;-90
2021/12/25 22:25:46;;;;;;;182.00;66.93;;;-7.90;99.90;;;;;;10242350;28;20102;-90
2021/12/25 22:30:47;;;;;;;191.63;77.33;;;-8.00;99.90;;;;;;10227073;28;20035;-85
2021/12/25 22:35:48;;;;;;;188.03;67.83;;;-8.00;99.90;;;;;;10249339;29;20039;-83
2021/12/25 22:40:51;;;;;;;194.63;77.90;;;-8.00;99.90;;;;;;10249387;29;20042;-84
2021/12/25 22:45:53;;;;;;;207.47;78.30;;;-8.00;99.90;;;;;;10225823;28;20035;-86
2021/12/25 22:50:57;;;;;;;201.23;74.10;;;-8.00;99.90;;;;;;10234186;28;20074;-85
2021/12/25 22:55:59;;;;;;;234.07;89.87;;;-8.10;99.90;;;;;;10239944;29;20653;-84
2021/12/25 23:01:04;;;;;;;191.60;75.60;;;-8.30;99.90;;;;;;10243065;28;20391;-83
2021/12/25 23:06:07;;;;;;;177.73;65.60;;;-8.40;99.90;;;;;;10242098;28;20055;-85
2021/12/25 23:11:08;;;;;;;196.50;70.67;;;-8.30;99.90;;;;;;10239914;28;20027;-85
2021/12/25 23:16:09;;;;;;;192.83;70.37;;;-8.40;99.90;;;;;;10239413;28;20023;-85
2021/12/25 23:21:10;;;;;;;183.73;64.53;;;-8.70;99.90;;;;;;10278635;28;20436;-90
2021/12/25 23:26:11;;;;;;;185.00;68.90;;;-8.90;99.90;;;;;;10260730;28;20020;-86
2021/12/25 23:31:12;;;;;;;227.47;86.50;;;-9.10;99.90;;;;;;10232359;28;20047;-84
2021/12/25 23:36:14;;;;;;;243.20;87.57;;;-9.00;99.90;;;;;;10239910;28;20471;-85
2021/12/25 23:41:18;;;;;;;230.27;89.37;;;-8.90;99.90;;;;;;10256501;28;20031;-84
2021/12/25 23:46:19;;;;;;;240.50;91.73;;;-9.00;99.90;;;;;;10272543;28;20037;-87
2021/12/25 23:51:21;;;;;;;235.70;97.37;;;-9.00;99.90;;;;;;10255915;28;20497;-84
2021/12/25 23:56:22;;;;;;;269.27;100.87;;;-8.90;99.90;;;;;;10247987;29;20034;-85
